Time;durP1;ratioP1;P1;durP2;ratioP2;P2;SDS_P1;SDS_P2;PMS_P1;PMS_P2;Temp;Humidity;BMP_temperature;BMP_pressure;BME280_temperature;BME280_humidity;BME280_pressure;Samples;Min_cycle;Max_cycle;Signal;HPM_P1;HPM_P2
2022/01/04 00:01:28;;;;;;;24.35;7.40;;;7.40;99.90;;;;;;6181962;23;20025;-84
2022/01/04 00:03:53;;;;;;;24.23;6.78;;;7.50;99.90;;;;;;6156033;23;20012;-83
2022/01/04 00:06:19;;;;;;;20.38;6.75;;;7.40;99.90;;;;;;6156668;23;20383;-84
2022/01/04 00:08:45;;;;;;;18.58;5.95;;;7.40;99.90;;;;;;6181372;23;20017;-83
2022/01/04 00:11:31;;;;;;;22.60;6.22;;;7.40;99.90;;;;;;6181347;23;20377;-84
2022/01/04 00:13:57;;;;;;;18.13;6.82;;;7.40;99.90;;;;;;6181982;23;20020;-84
2022/01/04 00:16:22;;;;;;;18.17;6.53;;;7.40;99.90;;;;;;6157130;23;20024;-84
2022/01/04 00:18:48;;;;;;;24.13;6.32;;;7.40;99.90;;;;;;6183233;23;20032;-84
2022/01/04 00:21:14;;;;;;;17.98;5.95;;;7.40;99.90;;;;;;6183704;23;20297;-84
2022/01/04 00:23:39;;;;;;;20.27;6.03;;;7.40;99.90;;;;;;6183034;23;20072;-84
2022/01/04 00:26:05;;;;;;;18.80;6.25;;;7.40;99.90;;;;;;6158317;23;20013;-84
2022/01/04 00:28:30;;;;;;;23.33;6.30;;;7.40;99.90;;;;;;6184231;23;20524;-83
2022/01/04 00:30:56;;;;;;;18.73;5.72;;;7.30;99.90;;;;;;6183851;23;20013;-84
2022/01/04 00:33:23;;;;;;;19.02;6.22;;;7.30;99.90;;;;;;6183550;23;20021;-84
2022/01/04 00:35:49;;;;;;;19.63;5.60;;;7.30;99.90;;;;;;6158552;23;20414;-84
2022/01/04 00:38:16;;;;;;;18.08;5.93;;;7.30;99.90;;;;;;6182847;23;20371;-83
2022/01/04 00:40:42;;;;;;;21.75;7.28;;;7.30;99.90;;;;;;6181691;23;20017;-84
2022/01/04 00:43:07;;;;;;;21.80;6.78;;;7.30;99.90;;;;;;6183280;23;20013;-84
2022/01/04 00:45:36;;;;;;;26.13;6.57;;;7.30;99.90;;;;;;6182698;23;20317;-83
2022/01/04 00:50:34;;;;;;;28.60;8.05;;;7.40;99.90;;;;;;6183616;23;20116;-84
2022/01/04 00:53:00;;;;;;;19.75;7.80;;;7.40;99.90;;;;;;6183514;23;20017;-84
2022/01/04 00:55:27;;;;;;;19.70;7.57;;;7.50;99.90;;;;;;6157886;23;20040;-84
2022/01/04 00:57:53;;;;;;;22.17;7.93;;;7.50;99.90;;;;;;6180360;23;20016;-84
2022/01/04 01:00:20;;;;;;;22.30;7.55;;;7.50;99.90;;;;;;6183208;23;20435;-84
2022/01/04 01:02:46;;;;;;;21.15;7.68;;;7.50;99.90;;;;;;6158152;23;20076;-84
2022/01/04 01:05:13;;;;;;;21.70;7.22;;;7.40;99.90;;;;;;6157605;23;20505;-84
2022/01/04 01:07:40;;;;;;;18.95;7.80;;;7.50;99.90;;;;;;6181314;23;20025;-84
2022/01/04 01:12:34;;;;;;;25.13;8.52;;;7.50;99.90;;;;;;6182400;23;20017;-84
2022/01/04 01:15:00;;;;;;;23.63;8.60;;;7.50;99.90;;;;;;6182750;23;20013;-84
2022/01/04 01:17:25;;;;;;;21.48;7.68;;;7.40;99.90;;;;;;6156933;23;20016;-84
2022/01/04 01:19:51;;;;;;;20.95;8.63;;;7.40;99.90;;;;;;6182608;23;20106;-84
2022/01/04 01:22:17;;;;;;;20.02;8.05;;;7.40;99.90;;;;;;6183636;23;20019;-84
2022/01/04 01:24:43;;;;;;;28.50;10.25;;;7.40;99.90;;;;;;6156042;23;20013;-84
2022/01/04 01:27:08;;;;;;;19.33;8.10;;;7.40;99.90;;;;;;6156869;23;20017;-84
2022/01/04 01:29:34;;;;;;;19.85;9.63;;;7.40;99.90;;;;;;6181685;23;20443;-84
2022/01/04 01:31:59;;;;;;;20.98;9.30;;;7.40;99.90;;;;;;6182442;23;20068;-84
2022/01/04 01:34:26;;;;;;;21.55;8.32;;;7.40;99.90;;;;;;6182329;23;20020;-83
2022/01/04 01:36:52;;;;;;;21.77;7.80;;;7.40;99.90;;;;;;6158458;23;20348;-84
2022/01/04 01:39:18;;;;;;;21.73;9.70;;;7.40;99.90;;;;;;6181488;23;20016;-84
2022/01/04 01:41:46;;;;;;;23.63;9.65;;;7.40;99.90;;;;;;6182531;23;20013;-84
2022/01/04 01:44:11;;;;;;;24.48;10.90;;;7.40;99.90;;;;;;6157617;23;20013;-84
2022/01/04 01:46:37;;;;;;;24.60;9.02;;;7.40;99.90;;;;;;6182940;23;20047;-83
2022/01/04 01:49:03;;;;;;;24.77;9.13;;;7.40;99.90;;;;;;6183435;23;20017;-84
2022/01/04 01:51:30;;;;;;;20.70;8.35;;;7.40;99.90;;;;;;6183290;23;20021;-84
2022/01/04 01:53:56;;;;;;;21.23;8.90;;;7.40;99.90;;;;;;6181909;23;20013;-84
2022/01/04 01:56:21;;;;;;;25.45;9.30;;;7.40;99.90;;;;;;6157851;23;20028;-84
2022/01/04 01:58:47;;;;;;;24.48;8.65;;;7.40;99.90;;;;;;6183298;23;20017;-84
2022/01/04 02:01:13;;;;;;;22.38;9.60;;;7.40;99.90;;;;;;6157527;23;20016;-84
2022/01/04 02:03:40;;;;;;;18.92;8.95;;;7.50;99.90;;;;;;6182770;23;20021;-84
2022/01/04 02:06:06;;;;;;;21.60;9.77;;;7.50;99.90;;;;;;6182567;23;20013;-84
2022/01/04 02:08:32;;;;;;;20.88;8.85;;;7.50;99.90;;;;;;6182318;23;20055;-84
2022/01/04 02:10:58;;;;;;;26.70;10.43;;;7.50;99.90;;;;;;6180687;23;20091;-83
2022/01/04 02:13:24;;;;;;;26.55;10.15;;;7.60;99.90;;;;;;6182318;23;20001;-84
2022/01/04 02:15:52;;;;;;;26.05;9.77;;;7.60;99.90;;;;;;6182889;23;20013;-83
2022/01/04 02:18:17;;;;;;;23.10;9.85;;;7.60;99.90;;;;;;6182151;23;20017;-85
2022/01/04 02:20:43;;;;;;;27.23;10.85;;;7.60;99.90;;;;;;6182052;23;20114;-84
2022/01/04 02:23:09;;;;;;;23.23;9.07;;;7.60;99.90;;;;;;6183094;23;20076;-84
2022/01/04 02:25:35;;;;;;;21.52;9.82;;;7.60;99.90;;;;;;6181415;23;20013;-85
2022/01/04 02:28:00;;;;;;;23.38;10.68;;;7.70;99.90;;;;;;6158009;23;20032;-85
2022/01/04 02:30:26;;;;;;;27.02;10.27;;;7.70;99.90;;;;;;6182652;23;20013;-84
2022/01/04 02:32:52;;;;;;;24.63;10.40;;;7.70;99.90;;;;;;6182646;23;20355;-84
2022/01/04 02:35:22;;;;;;;26.75;9.43;;;7.70;99.90;;;;;;6182405;23;20387;-84
2022/01/04 02:37:48;;;;;;;24.45;9.43;;;7.70;99.90;;;;;;6182439;23;20024;-84
2022/01/04 02:40:15;;;;;;;20.38;8.88;;;7.70;99.90;;;;;;6180231;23;20009;-84
2022/01/04 02:42:41;;;;;;;26.08;8.95;;;7.70;99.90;;;;;;6183531;23;20017;-84
2022/01/04 02:45:08;;;;;;;27.15;10.07;;;7.70;99.90;;;;;;6182640;23;20016;-83
2022/01/04 02:47:34;;;;;;;26.35;9.73;;;7.70;99.90;;;;;;6182200;23;20017;-84
2022/01/04 02:50:00;;;;;;;25.17;8.68;;;7.70;99.90;;;;;;6182443;23;20459;-84
2022/01/04 02:52:27;;;;;;;19.77;9.23;;;7.70;99.90;;;;;;6182813;23;20025;-84
2022/01/04 02:54:53;;;;;;;24.30;9.77;;;7.80;99.90;;;;;;6181350;23;20470;-84
2022/01/04 02:57:19;;;;;;;30.80;10.68;;;7.80;99.90;;;;;;6182383;23;20021;-84
2022/01/04 02:59:45;;;;;;;24.25;9.73;;;7.80;99.90;;;;;;6182827;23;20161;-84
2022/01/04 03:02:11;;;;;;;25.85;11.32;;;7.80;99.90;;;;;;6157845;23;20360;-84
2022/01/04 03:04:37;;;;;;;26.25;9.43;;;7.80;99.90;;;;;;6134151;23;20507;-84
2022/01/04 03:07:03;;;;;;;23.90;8.45;;;7.80;99.90;;;;;;6182962;23;20020;-84
2022/01/04 03:09:29;;;;;;;21.50;9.50;;;7.80;99.90;;;;;;6181698;23;20025;-84
2022/01/04 03:11:56;;;;;;;24.45;8.82;;;7.90;99.90;;;;;;6182027;23;20017;-83
2022/01/04 03:14:22;;;;;;;24.55;9.35;;;7.90;99.90;;;;;;6156349;23;20064;-84
2022/01/04 03:16:48;;;;;;;23.38;9.35;;;7.90;99.90;;;;;;6181138;23;20017;-84
2022/01/04 03:19:14;;;;;;;19.85;8.20;;;7.90;99.90;;;;;;6181170;23;20709;-84
2022/01/04 03:21:42;;;;;;;20.75;8.88;;;7.90;99.90;;;;;;6181676;23;20017;-84
2022/01/04 03:24:13;;;;;;;20.02;9.00;;;7.90;99.90;;;;;;6156148;23;20436;-84
2022/01/04 03:26:40;;;;;;;21.35;9.27;;;7.90;99.90;;;;;;6182420;23;20430;-84
2022/01/04 03:29:07;;;;;;;24.00;8.90;;;7.90;99.90;;;;;;6156836;23;20021;-83
2022/01/04 03:31:33;;;;;;;20.52;8.57;;;7.90;99.90;;;;;;6182570;23;20017;-84
2022/01/04 03:33:58;;;;;;;25.27;9.23;;;7.90;99.90;;;;;;6157411;23;20016;-84
2022/01/04 03:36:25;;;;;;;25.75;9.00;;;7.90;99.90;;;;;;6157563;23;20013;-84
2022/01/04 03:38:52;;;;;;;26.42;9.43;;;8.00;99.90;;;;;;6155042;23;20024;-84
2022/01/04 03:41:19;;;;;;;24.08;8.55;;;8.00;99.90;;;;;;6181518;23;20056;-84
2022/01/04 03:43:45;;;;;;;20.17;9.82;;;7.90;99.90;;;;;;6181901;23;20024;-83
2022/01/04 03:46:11;;;;;;;27.55;9.13;;;7.90;99.90;;;;;;6181547;23;20009;-84
2022/01/04 03:48:37;;;;;;;24.42;9.75;;;7.90;99.90;;;;;;6181750;23;20020;-84
2022/01/04 03:51:05;;;;;;;23.00;9.27;;;7.90;99.90;;;;;;6156179;23;20080;-84
2022/01/04 03:53:31;;;;;;;18.25;8.40;;;7.90;99.90;;;;;;6156530;23;20068;-84
2022/01/04 03:55:56;;;;;;;23.50;9.48;;;7.90;99.90;;;;;;6184375;23;20009;-84
2022/01/04 03:58:23;;;;;;;22.33;10.32;;;7.90;99.90;;;;;;6182920;23;20025;-83
2022/01/04 04:00:49;;;;;;;23.85;8.90;;;7.90;99.90;;;;;;6183794;23;20403;-84
2022/01/04 04:03:15;;;;;;;25.10;10.60;;;7.90;99.90;;;;;;6159294;23;20027;-84
2022/01/04 04:05:41;;;;;;;20.92;9.07;;;7.90;99.90;;;;;;6183202;23;20020;-84
2022/01/04 04:08:07;;;;;;;20.83;10.02;;;7.90;99.90;;;;;;6184017;23;20116;-84
2022/01/04 04:10:32;;;;;;;17.80;9.45;;;7.90;99.90;;;;;;6181659;23;20048;-84
2022/01/04 04:12:58;;;;;;;22.00;8.35;;;7.90;99.90;;;;;;6183406;23;20016;-84
2022/01/04 04:15:24;;;;;;;18.02;8.50;;;8.00;99.90;;;;;;6158160;23;20104;-84
2022/01/04 04:17:49;;;;;;;15.68;7.97;;;7.90;99.90;;;;;;6182788;23;20024;-84
2022/01/04 04:20:15;;;;;;;17.45;7.88;;;7.90;99.90;;;;;;6182944;23;20009;-84
2022/01/04 04:22:41;;;;;;;19.08;8.43;;;7.90;99.90;;;;;;6183481;23;20009;-84
2022/01/04 04:25:07;;;;;;;22.80;8.65;;;8.00;99.90;;;;;;6157337;23;20005;-84
2022/01/04 04:27:33;;;;;;;21.05;7.95;;;7.90;99.90;;;;;;6183629;23;20109;-84
2022/01/04 04:29:59;;;;;;;21.17;9.45;;;7.90;99.90;;;;;;6183234;23;20021;-84
2022/01/04 04:32:24;;;;;;;16.75;8.32;;;7.90;99.90;;;;;;6183099;23;20021;-84
2022/01/04 04:34:50;;;;;;;20.08;9.77;;;7.90;99.90;;;;;;6181757;23;20021;-84
2022/01/04 04:37:16;;;;;;;21.00;9.55;;;7.90;99.90;;;;;;6183775;23;20036;-84
2022/01/04 04:39:41;;;;;;;21.83;9.75;;;7.90;99.90;;;;;;6156199;23;20021;-83
2022/01/04 04:42:07;;;;;;;23.60;10.38;;;8.00;99.90;;;;;;6182976;23;20466;-84
2022/01/04 04:44:33;;;;;;;24.52;10.80;;;8.00;99.90;;;;;;6182665;23;20036;-84
2022/01/04 04:46:58;;;;;;;20.58;10.10;;;8.00;99.90;;;;;;6183515;23;20447;-84
2022/01/04 04:49:24;;;;;;;21.17;10.00;;;8.00;99.90;;;;;;6182266;23;20571;-84
2022/01/04 04:51:50;;;;;;;20.60;10.38;;;8.00;99.90;;;;;;6182677;23;20021;-83
2022/01/04 04:54:15;;;;;;;18.38;8.98;;;8.00;99.90;;;;;;6181721;23;20020;-84
2022/01/04 04:56:41;;;;;;;22.95;10.18;;;8.00;99.90;;;;;;6183394;23;20328;-84
2022/01/04 04:59:10;;;;;;;28.38;11.23;;;8.00;99.90;;;;;;6182825;23;20020;-84
2022/01/04 05:01:36;;;;;;;27.20;10.25;;;8.00;99.90;;;;;;6158320;23;20009;-84
2022/01/04 05:04:02;;;;;;;20.05;9.77;;;8.00;99.90;;;;;;6182381;23;20048;-84
2022/01/04 05:06:29;;;;;;;20.33;9.75;;;8.00;99.90;;;;;;6182948;23;20009;-84
2022/01/04 05:08:54;;;;;;;25.45;9.80;;;8.00;99.90;;;;;;6156377;23;20027;-84
2022/01/04 05:11:20;;;;;;;21.75;10.20;;;8.00;99.90;;;;;;6183102;23;20139;-83
2022/01/04 05:13:46;;;;;;;25.17;10.30;;;8.00;99.90;;;;;;6182491;23;20024;-84
2022/01/04 05:16:11;;;;;;;18.80;10.07;;;8.00;99.90;;;;;;6182534;23;20355;-84
2022/01/04 05:18:37;;;;;;;28.65;11.43;;;7.90;99.90;;;;;;6157603;23;20016;-84
2022/01/04 05:21:03;;;;;;;18.85;9.32;;;8.00;99.90;;;;;;6156949;23;20044;-84
2022/01/04 05:23:30;;;;;;;20.35;10.00;;;8.00;99.90;;;;;;6182755;23;20222;-84
2022/01/04 05:25:56;;;;;;;21.23;10.13;;;7.90;99.90;;;;;;6181385;23;20017;-84
2022/01/04 05:28:21;;;;;;;26.20;10.88;;;7.90;99.90;;;;;;6182691;23;20028;-84
2022/01/04 05:30:47;;;;;;;23.48;10.68;;;7.90;99.90;;;;;;6157349;23;20020;-84
2022/01/04 05:33:13;;;;;;;21.92;9.52;;;7.90;99.90;;;;;;6182072;23;20469;-84
2022/01/04 05:35:39;;;;;;;21.23;9.82;;;7.90;99.90;;;;;;6182177;23;20043;-84
2022/01/04 05:38:04;;;;;;;23.42;10.77;;;7.90;99.90;;;;;;6158002;23;20336;-84
2022/01/04 05:40:33;;;;;;;20.50;9.65;;;7.90;99.90;;;;;;6181227;23;20017;-83
2022/01/04 05:42:58;;;;;;;19.95;9.57;;;7.90;99.90;;;;;;6182613;23;20009;-84
2022/01/04 05:45:24;;;;;;;25.73;10.52;;;7.90;99.90;;;;;;6181887;23;20112;-83
2022/01/04 05:47:50;;;;;;;23.23;10.90;;;7.90;99.90;;;;;;6157773;23;20013;-83
2022/01/04 05:50:15;;;;;;;27.13;11.07;;;7.80;99.90;;;;;;6180987;23;20478;-83
2022/01/04 05:52:41;;;;;;;24.05;11.50;;;7.80;99.90;;;;;;6182084;23;20012;-84
2022/01/04 05:55:07;;;;;;;23.25;10.77;;;7.80;99.90;;;;;;6181018;23;20013;-84
2022/01/04 05:57:33;;;;;;;28.25;11.07;;;7.80;99.90;;;;;;6181954;23;20016;-84
2022/01/04 06:00:00;;;;;;;23.92;11.18;;;7.80;99.90;;;;;;6181550;23;20191;-83
2022/01/04 06:02:26;;;;;;;24.65;12.52;;;7.80;99.90;;;;;;6182014;23;20416;-84
2022/01/04 06:04:52;;;;;;;27.67;12.50;;;7.80;99.90;;;;;;6156740;23;20064;-83
2022/01/04 06:07:18;;;;;;;26.15;12.18;;;7.70;99.90;;;;;;6181480;23;20013;-83
2022/01/04 06:09:47;;;;;;;25.75;12.48;;;7.70;99.90;;;;;;6179699;23;20354;-85
2022/01/04 06:14:51;;;;;;;25.15;11.70;;;7.70;99.90;;;;;;6182025;23;20489;-84
2022/01/04 06:17:18;;;;;;;28.70;12.30;;;7.70;99.90;;;;;;6181746;23;20013;-84
2022/01/04 06:19:43;;;;;;;26.27;12.38;;;7.70;99.90;;;;;;6181496;23;20020;-84
2022/01/04 06:22:09;;;;;;;24.40;12.63;;;7.70;99.90;;;;;;6181532;23;20028;-83
2022/01/04 06:24:36;;;;;;;30.20;12.75;;;7.70;99.90;;;;;;6180813;23;20396;-83
2022/01/04 06:27:08;;;;;;;25.65;12.13;;;7.70;99.90;;;;;;6181536;23;20020;-83
2022/01/04 06:29:35;;;;;;;25.77;11.27;;;7.70;99.90;;;;;;6181571;23;20452;-83
2022/01/04 06:32:01;;;;;;;28.20;13.38;;;7.70;99.90;;;;;;6181498;23;20027;-83
2022/01/04 06:34:26;;;;;;;27.27;13.15;;;7.70;99.90;;;;;;6180573;23;20017;-84
2022/01/04 06:36:52;;;;;;;28.50;12.77;;;7.70;99.90;;;;;;6157370;23;20428;-84
2022/01/04 06:39:18;;;;;;;30.63;14.75;;;7.70;99.90;;;;;;6180745;23;20063;-84
2022/01/04 06:41:43;;;;;;;28.85;13.00;;;7.70;99.90;;;;;;6181489;23;20009;-84
2022/01/04 06:44:09;;;;;;;24.90;11.48;;;7.70;99.90;;;;;;6181815;23;20017;-83
2022/01/04 06:46:35;;;;;;;30.95;13.43;;;7.70;99.90;;;;;;6156874;23;20344;-83
2022/01/04 06:49:01;;;;;;;25.75;13.63;;;7.70;99.90;;;;;;6181612;23;20021;-83
2022/01/04 06:51:27;;;;;;;30.13;13.45;;;7.70;99.90;;;;;;6180457;23;20017;-84
2022/01/04 06:53:52;;;;;;;30.60;13.68;;;7.70;99.90;;;;;;6181335;23;20096;-84
2022/01/04 06:56:18;;;;;;;30.08;12.18;;;7.70;99.90;;;;;;6157072;23;20331;-83
2022/01/04 06:58:43;;;;;;;24.52;13.13;;;7.80;99.90;;;;;;6182226;23;20013;-84
2022/01/04 07:01:09;;;;;;;23.48;12.52;;;7.80;99.90;;;;;;6182071;23;20025;-84
2022/01/04 07:03:35;;;;;;;26.92;12.05;;;7.80;99.90;;;;;;6180818;23;20005;-84
2022/01/04 07:06:00;;;;;;;28.02;13.48;;;7.80;99.90;;;;;;6181592;23;20098;-84
2022/01/04 07:08:26;;;;;;;27.15;12.07;;;7.80;99.90;;;;;;6156751;23;20013;-84
2022/01/04 07:10:52;;;;;;;27.17;12.95;;;7.80;99.90;;;;;;6179719;23;20025;-83
2022/01/04 07:13:17;;;;;;;25.77;12.55;;;7.80;99.90;;;;;;6157621;23;20017;-84
2022/01/04 07:15:43;;;;;;;26.63;12.85;;;7.90;99.90;;;;;;6181347;23;20013;-83
2022/01/04 07:18:08;;;;;;;25.42;12.57;;;7.90;99.90;;;;;;6190113;23;20077;-83
2022/01/04 07:20:34;;;;;;;28.80;12.23;;;7.90;99.90;;;;;;6182356;23;20048;-84
2022/01/04 07:23:00;;;;;;;25.08;12.88;;;7.90;99.90;;;;;;6181689;23;20088;-84
2022/01/04 07:25:26;;;;;;;21.77;12.65;;;7.80;99.90;;;;;;6179661;23;20024;-84
2022/01/04 07:27:52;;;;;;;28.50;12.18;;;7.80;99.90;;;;;;6156564;23;20096;-83
2022/01/04 07:30:17;;;;;;;26.58;13.00;;;7.90;99.90;;;;;;6158317;23;20442;-83
2022/01/04 07:32:44;;;;;;;26.75;13.18;;;7.80;99.90;;;;;;6183572;23;20013;-83
2022/01/04 07:35:10;;;;;;;23.30;12.80;;;7.80;99.90;;;;;;6182532;23;20021;-83
2022/01/04 07:37:35;;;;;;;29.60;13.15;;;7.80;99.90;;;;;;6183065;23;20017;-84
2022/01/04 07:40:01;;;;;;;30.33;14.20;;;7.80;99.90;;;;;;6181763;23;20060;-83
2022/01/04 07:42:27;;;;;;;24.90;12.48;;;7.90;99.90;;;;;;6158382;23;20017;-84
2022/01/04 07:44:52;;;;;;;25.75;12.20;;;7.80;99.90;;;;;;6158342;23;20013;-84
2022/01/04 07:47:18;;;;;;;25.02;11.88;;;7.80;99.90;;;;;;6157269;23;20036;-83
2022/01/04 07:49:43;;;;;;;23.02;12.60;;;7.80;99.90;;;;;;6182136;23;20035;-84
2022/01/04 07:52:09;;;;;;;28.05;12.52;;;7.80;99.90;;;;;;6157288;23;20028;-84
2022/01/04 07:54:35;;;;;;;21.70;11.57;;;7.80;99.90;;;;;;6180877;23;20013;-84
2022/01/04 07:57:00;;;;;;;26.35;10.85;;;7.80;99.90;;;;;;6182263;23;20013;-83
2022/01/04 07:59:29;;;;;;;25.35;11.38;;;7.70;99.90;;;;;;6181389;23;20024;-83
2022/01/04 08:01:55;;;;;;;23.85;11.05;;;7.70;99.90;;;;;;6156352;23;20091;-83
2022/01/04 08:04:21;;;;;;;24.42;11.85;;;7.70;99.90;;;;;;6179875;23;20083;-83
2022/01/04 08:06:46;;;;;;;21.73;11.13;;;7.80;99.90;;;;;;6181456;23;20384;-83
2022/01/04 08:09:12;;;;;;;25.77;11.68;;;7.80;99.90;;;;;;6179550;23;20033;-83
2022/01/04 08:11:37;;;;;;;21.77;11.63;;;7.70;99.90;;;;;;6156402;23;20523;-83
2022/01/04 08:14:03;;;;;;;21.02;11.15;;;7.70;99.90;;;;;;6181438;23;20324;-83
2022/01/04 08:16:29;;;;;;;26.67;11.18;;;7.70;99.90;;;;;;6156102;23;20081;-83
2022/01/04 08:18:54;;;;;;;21.80;11.20;;;7.70;99.90;;;;;;6181300;23;20323;-83
2022/01/04 08:21:20;;;;;;;20.13;10.85;;;7.70;99.90;;;;;;6180393;23;20595;-83
2022/01/04 08:23:46;;;;;;;22.92;11.60;;;7.60;99.90;;;;;;6155502;23;20526;-83
2022/01/04 08:26:11;;;;;;;23.83;11.82;;;7.60;99.90;;;;;;6180826;23;20048;-83
2022/01/04 08:28:37;;;;;;;26.40;11.77;;;7.60;99.90;;;;;;6131485;23;20021;-83
2022/01/04 08:31:03;;;;;;;25.67;12.40;;;7.60;99.90;;;;;;6181546;23;20297;-84
2022/01/04 08:33:29;;;;;;;27.35;12.77;;;7.60;99.90;;;;;;6181246;23;20047;-84
2022/01/04 08:35:54;;;;;;;22.20;11.57;;;7.70;99.90;;;;;;6181221;23;20001;-84
2022/01/04 08:38:20;;;;;;;30.55;13.73;;;7.70;99.90;;;;;;6180374;23;20027;-84
2022/01/04 08:40:45;;;;;;;26.48;11.93;;;7.70;99.90;;;;;;6179342;23;20088;-84
2022/01/04 08:43:11;;;;;;;30.85;13.52;;;7.70;99.90;;;;;;6156079;23;20009;-84
2022/01/04 08:45:36;;;;;;;28.30;13.65;;;7.70;99.90;;;;;;6155971;23;20017;-84
2022/01/04 08:48:04;;;;;;;34.35;13.57;;;7.70;99.90;;;;;;6181093;23;20498;-84
2022/01/04 08:50:30;;;;;;;30.05;12.73;;;7.70;99.90;;;;;;6155768;23;20023;-84
2022/01/04 08:52:56;;;;;;;29.92;13.43;;;7.70;99.90;;;;;;6180758;23;20439;-84
2022/01/04 08:55:25;;;;;;;32.15;13.75;;;7.70;99.90;;;;;;6179926;23;20009;-84
2022/01/04 08:57:50;;;;;;;25.00;12.93;;;7.70;99.90;;;;;;6154272;23;20348;-84
2022/01/04 09:00:16;;;;;;;36.45;13.93;;;7.70;99.90;;;;;;6179002;23;20017;-84
2022/01/04 09:02:43;;;;;;;33.65;14.55;;;7.70;99.90;;;;;;6179726;23;20574;-84
2022/01/04 09:05:10;;;;;;;29.55;13.90;;;7.70;99.90;;;;;;6180112;23;20450;-84
2022/01/04 09:07:36;;;;;;;30.45;14.30;;;7.70;99.90;;;;;;6180592;23;20017;-84
2022/01/04 09:10:03;;;;;;;28.92;14.23;;;7.70;99.90;;;;;;6154754;23;20104;-84
2022/01/04 09:12:41;;;;;;;29.20;13.85;;;7.80;99.90;;;;;;6154561;23;20064;-84
2022/01/04 09:15:30;;;;;;;12.93;7.07;;;7.80;99.90;;;;;;6153491;23;20023;-84
2022/01/04 09:20:39;;;;;;;5.90;1.45;;;7.60;99.90;;;;;;6179901;23;20104;-85
2022/01/04 09:23:05;;;;;;;2.60;0.80;;;7.50;99.90;;;;;;6181167;23;20479;-85
2022/01/04 09:25:31;;;;;;;2.38;0.52;;;7.30;99.90;;;;;;6179786;23;20320;-85
2022/01/04 09:27:57;;;;;;;1.48;0.32;;;7.20;99.90;;;;;;6155822;23;20064;-85
2022/01/04 09:30:25;;;;;;;3.47;0.50;;;7.10;99.90;;;;;;6155781;23;20013;-85
2022/01/04 09:32:52;;;;;;;1.73;0.30;;;7.00;99.90;;;;;;6155641;23;20331;-85
2022/01/04 09:35:18;;;;;;;1.25;0.30;;;7.00;99.90;;;;;;6154842;23;20725;-84
2022/01/04 09:37:43;;;;;;;1.55;0.60;;;7.00;99.90;;;;;;6180551;23;20017;-84
2022/01/04 09:40:10;;;;;;;1.95;0.40;;;7.00;99.90;;;;;;6178549;23;20049;-84
2022/01/04 09:42:37;;;;;;;3.00;0.80;;;7.00;99.90;;;;;;6178895;23;20112;-84
2022/01/04 09:45:04;;;;;;;3.30;0.98;;;7.00;99.90;;;;;;6179465;23;20017;-84
2022/01/04 09:47:30;;;;;;;6.50;1.80;;;7.00;99.90;;;;;;6155139;23;20072;-84
2022/01/04 09:49:58;;;;;;;6.38;2.35;;;7.10;99.90;;;;;;6179974;23;20126;-84
2022/01/04 09:52:24;;;;;;;6.15;2.33;;;7.10;99.90;;;;;;6154897;23;20107;-84
2022/01/04 09:54:53;;;;;;;4.88;2.50;;;7.10;99.90;;;;;;6153752;23;20432;-84
2022/01/04 09:57:19;;;;;;;6.60;2.67;;;7.20;99.90;;;;;;6155960;23;20016;-84
2022/01/04 09:59:44;;;;;;;8.32;3.05;;;7.20;99.90;;;;;;6179844;23;20531;-84
2022/01/04 10:02:16;;;;;;;8.23;2.50;;;7.20;99.90;;;;;;6154882;23;20017;-84
2022/01/04 10:04:42;;;;;;;10.52;4.22;;;7.30;99.90;;;;;;6179450;23;20083;-84
2022/01/04 10:07:08;;;;;;;9.25;3.60;;;7.30;99.90;;;;;;6178753;23;20556;-84
2022/01/04 10:09:45;;;;;;;10.65;3.10;;;7.30;99.90;;;;;;6177698;23;20016;-84
2022/01/04 10:12:21;;;;;;;14.13;4.20;;;7.40;99.90;;;;;;6180013;23;20040;-84
2022/01/04 10:14:55;;;;;;;12.25;3.72;;;7.40;99.90;;;;;;6179107;23;20013;-84
2022/01/04 10:17:28;;;;;;;12.75;3.78;;;7.50;99.90;;;;;;6160784;23;20129;-84
2022/01/04 10:19:56;;;;;;;13.57;3.88;;;7.50;99.90;;;;;;6172779;23;20403;-84
2022/01/04 10:22:28;;;;;;;11.52;3.78;;;7.60;99.90;;;;;;6173394;23;20013;-84
2022/01/04 10:25:03;;;;;;;12.93;4.03;;;7.60;99.90;;;;;;6148813;23;20403;-84
2022/01/04 10:27:43;;;;;;;17.73;3.67;;;7.60;99.90;;;;;;6173459;23;20478;-84
2022/01/04 10:30:27;;;;;;;15.43;3.65;;;7.60;99.90;;;;;;6151141;23;20021;-84
2022/01/04 10:35:54;;;;;;;15.43;2.20;;;7.70;99.90;;;;;;6172697;23;20019;-84
2022/01/04 10:38:30;;;;;;;8.32;1.80;;;7.70;99.90;;;;;;6177790;23;20084;-84
2022/01/04 10:41:04;;;;;;;9.32;2.22;;;7.70;99.90;;;;;;6176885;23;20016;-84
2022/01/04 10:43:33;;;;;;;6.38;1.08;;;7.60;99.90;;;;;;6152468;23;20020;-84
2022/01/04 10:46:03;;;;;;;5.45;1.10;;;7.60;99.90;;;;;;6176936;23;20052;-84
2022/01/04 10:48:34;;;;;;;4.53;0.70;;;7.50;99.90;;;;;;6153037;23;20013;-84
2022/01/04 10:51:11;;;;;;;4.00;0.80;;;7.40;99.90;;;;;;6152155;23;20017;-84
2022/01/04 10:54:00;;;;;;;6.38;0.85;;;7.40;99.90;;;;;;6152719;23;20069;-84
2022/01/04 10:56:38;;;;;;;3.80;1.08;;;7.30;99.90;;;;;;6178097;23;20017;-84
2022/01/04 10:59:11;;;;;;;4.47;0.90;;;7.30;99.90;;;;;;6177107;23;20009;-84
2022/01/04 11:01:41;;;;;;;2.53;0.75;;;7.20;99.90;;;;;;6152272;23;20009;-84
2022/01/04 11:04:19;;;;;;;5.13;0.90;;;7.20;99.90;;;;;;6175128;23;20017;-84
2022/01/04 11:06:46;;;;;;;4.88;1.10;;;7.20;99.90;;;;;;6177549;23;20092;-84
2022/01/04 11:09:12;;;;;;;4.80;0.95;;;7.20;99.90;;;;;;6151274;23;20017;-84
2022/01/04 11:11:39;;;;;;;6.60;0.77;;;7.10;99.90;;;;;;6175817;23;20531;-84
2022/01/04 11:14:07;;;;;;;10.40;1.23;;;7.10;99.90;;;;;;6177124;23;20481;-84
2022/01/04 11:16:32;;;;;;;3.28;0.88;;;7.10;99.90;;;;;;6176741;23;20026;-84
2022/01/04 11:18:59;;;;;;;3.78;0.80;;;7.10;99.90;;;;;;6176682;23;20347;-84
2022/01/04 11:21:34;;;;;;;4.13;1.25;;;7.10;99.90;;;;;;6153592;23;20009;-84
2022/01/04 11:24:05;;;;;;;4.28;0.93;;;7.20;99.90;;;;;;6175995;23;20013;-84
2022/01/04 11:26:31;;;;;;;5.88;1.00;;;7.20;99.90;;;;;;6178217;23;20461;-84
2022/01/04 11:28:57;;;;;;;4.95;0.70;;;7.10;99.90;;;;;;6175602;23;20020;-84
2022/01/04 11:31:45;;;;;;;5.15;0.90;;;7.10;99.90;;;;;;6176768;23;20513;-84
2022/01/04 11:34:25;;;;;;;4.00;0.63;;;7.00;99.90;;;;;;6177431;23;20016;-84
2022/01/04 11:36:52;;;;;;;4.82;0.73;;;7.00;99.90;;;;;;6176793;23;20363;-84
2022/01/04 11:39:41;;;;;;;4.55;1.02;;;6.90;99.90;;;;;;6175719;23;20021;-84
2022/01/04 11:42:08;;;;;;;2.42;0.50;;;6.90;99.90;;;;;;6176431;23;20024;-84
2022/01/04 11:44:42;;;;;;;2.70;0.35;;;6.70;99.90;;;;;;6152452;23;20021;-84
2022/01/04 11:47:10;;;;;;;1.65;0.22;;;6.60;99.90;;;;;;6176152;23;20093;-84
2022/01/04 11:49:59;;;;;;;2.55;0.20;;;6.50;99.90;;;;;;6176436;23;20013;-83
2022/01/04 11:52:41;;;;;;;0.77;0.20;;;6.40;99.90;;;;;;6176844;23;20097;-84
2022/01/04 11:55:32;;;;;;;1.90;0.10;;;6.30;99.90;;;;;;6175743;23;20076;-83
2022/01/04 11:58:01;;;;;;;1.60;0.35;;;6.20;99.90;;;;;;6178797;23;20084;-83
2022/01/04 12:00:32;;;;;;;4.28;0.30;;;6.20;99.90;;;;;;6179285;23;20084;-83
2022/01/04 12:03:18;;;;;;;3.00;0.20;;;6.20;99.90;;;;;;6153343;23;20017;-83
2022/01/04 12:05:56;;;;;;;1.98;0.17;;;6.20;99.90;;;;;;6153409;23;20013;-83
2022/01/04 12:08:24;;;;;;;1.48;0.17;;;6.20;99.90;;;;;;6178386;23;20059;-83
2022/01/04 12:10:51;;;;;;;1.25;0.13;;;6.20;99.90;;;;;;6153244;23;20017;-83
2022/01/04 12:13:21;;;;;;;1.27;0.28;;;6.10;99.90;;;;;;6179353;23;20024;-83
2022/01/04 12:15:49;;;;;;;1.10;0.10;;;6.10;99.90;;;;;;6180268;23;20016;-83
2022/01/04 12:18:23;;;;;;;2.15;0.32;;;6.10;99.90;;;;;;6181224;23;20052;-83
2022/01/04 12:20:52;;;;;;;2.35;0.08;;;6.10;99.90;;;;;;6156317;23;20052;-83
2022/01/04 12:23:26;;;;;;;0.93;0.13;;;6.10;99.90;;;;;;6155567;23;20312;-83
2022/01/04 12:26:04;;;;;;;1.90;0.20;;;6.10;99.90;;;;;;6178684;23;20017;-83
2022/01/04 12:28:39;;;;;;;1.83;0.20;;;6.10;99.90;;;;;;6180151;23;20017;-83
2022/01/04 12:31:16;;;;;;;2.25;0.20;;;6.10;99.90;;;;;;6178995;23;20190;-83
2022/01/04 12:33:45;;;;;;;3.35;0.20;;;6.10;99.90;;;;;;6179210;23;20017;-83
2022/01/04 12:36:22;;;;;;;4.70;0.30;;;6.10;99.90;;;;;;6179703;23;20024;-83
2022/01/04 12:38:48;;;;;;;3.05;0.30;;;6.00;99.90;;;;;;6179875;23;20017;-84
2022/01/04 12:41:15;;;;;;;3.15;0.20;;;6.10;99.90;;;;;;6154727;23;20008;-83
2022/01/04 12:43:41;;;;;;;3.75;0.38;;;6.00;99.90;;;;;;6179962;23;20036;-83
2022/01/04 12:46:07;;;;;;;4.00;0.30;;;6.10;99.90;;;;;;6179044;23;20010;-83
2022/01/04 12:48:50;;;;;;;1.52;0.20;;;6.10;99.90;;;;;;6178715;23;20159;-83
2022/01/04 12:51:24;;;;;;;4.07;0.30;;;6.10;99.90;;;;;;6181656;23;20021;-83
2022/01/04 12:53:54;;;;;;;1.70;0.10;;;6.10;99.90;;;;;;6179721;23;20028;-83
2022/01/04 12:56:20;;;;;;;3.28;0.20;;;6.10;99.90;;;;;;6155779;23;20419;-83
2022/01/04 12:58:45;;;;;;;4.45;0.28;;;6.10;99.90;;;;;;6179779;23;20005;-83
2022/01/04 13:01:11;;;;;;;4.80;0.28;;;6.10;99.90;;;;;;6180185;23;20319;-83